sensor_id;sensor_type;location;lat;lon;timestamp;P1;durP1;ratioP1;P2;durP2;ratioP2
47669;SDS011;33408;52.062;11.722;2022-09-20T00:02:04;22.55;;;4.07;;
47669;SDS011;33408;52.062;11.722;2022-09-20T00:04:31;16.38;;;3.88;;
47669;SDS011;33408;52.062;11.722;2022-09-20T00:06:59;7.05;;;3.30;;
47669;SDS011;33408;52.062;11.722;2022-09-20T00:09:26;14.07;;;4.28;;
47669;SDS011;33408;52.062;11.722;2022-09-20T00:11:52;13.65;;;3.45;;
47669;SDS011;33408;52.062;11.722;2022-09-20T00:14:18;14.50;;;4.15;;
47669;SDS011;33408;52.062;11.722;2022-09-20T00:16:45;9.85;;;3.40;;
47669;SDS011;33408;52.062;11.722;2022-09-20T00:19:14;12.57;;;3.90;;
47669;SDS011;33408;52.062;11.722;2022-09-20T00:21:43;13.07;;;4.10;;
47669;SDS011;33408;52.062;11.722;2022-09-20T00:24:11;17.38;;;4.25;;
47669;SDS011;33408;52.062;11.722;2022-09-20T00:26:37;15.60;;;3.30;;
47669;SDS011;33408;52.062;11.722;2022-09-20T00:29:04;14.52;;;3.58;;
47669;SDS011;33408;52.062;11.722;2022-09-20T00:31:31;13.63;;;3.90;;
47669;SDS011;33408;52.062;11.722;2022-09-20T00:33:59;14.82;;;3.45;;
47669;SDS011;33408;52.062;11.722;2022-09-20T00:36:43;10.60;;;3.20;;
47669;SDS011;33408;52.062;11.722;2022-09-20T00:39:12;11.77;;;3.38;;
47669;SDS011;33408;52.062;11.722;2022-09-20T00:41:39;15.85;;;3.80;;
47669;SDS011;33408;52.062;11.722;2022-09-20T00:47:07;11.00;;;4.40;;
47669;SDS011;33408;52.062;11.722;2022-09-20T00:49:39;12.38;;;4.30;;
47669;SDS011;33408;52.062;11.722;2022-09-20T00:52:05;9.65;;;2.85;;
47669;SDS011;33408;52.062;11.722;2022-09-20T00:54:34;12.75;;;3.83;;
47669;SDS011;33408;52.062;11.722;2022-09-20T00:57:01;14.10;;;3.75;;
47669;SDS011;33408;52.062;11.722;2022-09-20T00:59:28;12.32;;;3.70;;
47669;SDS011;33408;52.062;11.722;2022-09-20T01:01:59;14.18;;;4.75;;
47669;SDS011;33408;52.062;11.722;2022-09-20T01:04:29;18.33;;;4.38;;
47669;SDS011;33408;52.062;11.722;2022-09-20T01:06:56;12.93;;;3.78;;
47669;SDS011;33408;52.062;11.722;2022-09-20T01:09:26;11.02;;;3.50;;
47669;SDS011;33408;52.062;11.722;2022-09-20T01:11:54;17.42;;;3.97;;
47669;SDS011;33408;52.062;11.722;2022-09-20T01:14:23;11.45;;;3.10;;
47669;SDS011;33408;52.062;11.722;2022-09-20T01:16:50;13.05;;;3.47;;
47669;SDS011;33408;52.062;11.722;2022-09-20T01:19:22;8.77;;;3.03;;
47669;SDS011;33408;52.062;11.722;2022-09-20T01:21:59;18.85;;;4.57;;
47669;SDS011;33408;52.062;11.722;2022-09-20T01:24:29;12.25;;;4.22;;
47669;SDS011;33408;52.062;11.722;2022-09-20T01:27:11;13.05;;;4.10;;
47669;SDS011;33408;52.062;11.722;2022-09-20T01:29:59;15.95;;;4.28;;
47669;SDS011;33408;52.062;11.722;2022-09-20T01:32:35;15.40;;;4.53;;
47669;SDS011;33408;52.062;11.722;2022-09-20T01:35:10;12.80;;;4.20;;
47669;SDS011;33408;52.062;11.722;2022-09-20T01:37:41;10.65;;;3.75;;
47669;SDS011;33408;52.062;11.722;2022-09-20T01:40:20;12.88;;;4.03;;
47669;SDS011;33408;52.062;11.722;2022-09-20T01:42:55;12.20;;;3.92;;
47669;SDS011;33408;52.062;11.722;2022-09-20T01:45:29;15.05;;;4.68;;
47669;SDS011;33408;52.062;11.722;2022-09-20T01:47:59;13.60;;;4.47;;
47669;SDS011;33408;52.062;11.722;2022-09-20T01:50:35;14.57;;;4.32;;
47669;SDS011;33408;52.062;11.722;2022-09-20T01:56:22;13.60;;;4.57;;
47669;SDS011;33408;52.062;11.722;2022-09-20T01:59:15;14.70;;;4.68;;
47669;SDS011;33408;52.062;11.722;2022-09-20T02:02:06;14.23;;;5.07;;
47669;SDS011;33408;52.062;11.722;2022-09-20T02:04:57;11.88;;;4.65;;
47669;SDS011;33408;52.062;11.722;2022-09-20T02:10:37;12.20;;;4.53;;
47669;SDS011;33408;52.062;11.722;2022-09-20T02:13:29;19.17;;;5.45;;
47669;SDS011;33408;52.062;11.722;2022-09-20T02:16:04;15.05;;;5.70;;
47669;SDS011;33408;52.062;11.722;2022-09-20T02:18:46;15.30;;;5.45;;
47669;SDS011;33408;52.062;11.722;2022-09-20T02:21:34;16.75;;;6.15;;
47669;SDS011;33408;52.062;11.722;2022-09-20T02:24:06;14.88;;;6.22;;
47669;SDS011;33408;52.062;11.722;2022-09-20T02:26:45;15.80;;;6.35;;
47669;SDS011;33408;52.062;11.722;2022-09-20T02:29:23;15.88;;;5.88;;
47669;SDS011;33408;52.062;11.722;2022-09-20T02:32:00;21.30;;;7.60;;
47669;SDS011;33408;52.062;11.722;2022-09-20T02:37:48;14.48;;;7.10;;
47669;SDS011;33408;52.062;11.722;2022-09-20T02:40:35;13.57;;;6.13;;
47669;SDS011;33408;52.062;11.722;2022-09-20T02:43:13;19.80;;;6.68;;
47669;SDS011;33408;52.062;11.722;2022-09-20T02:45:51;17.08;;;6.78;;
47669;SDS011;33408;52.062;11.722;2022-09-20T02:48:28;16.98;;;7.07;;
47669;SDS011;33408;52.062;11.722;2022-09-20T02:51:04;22.73;;;7.65;;
47669;SDS011;33408;52.062;11.722;2022-09-20T02:53:42;20.42;;;7.00;;
47669;SDS011;33408;52.062;11.722;2022-09-20T02:56:13;22.30;;;7.95;;
47669;SDS011;33408;52.062;11.722;2022-09-20T02:58:50;16.60;;;6.65;;
47669;SDS011;33408;52.062;11.722;2022-09-20T03:01:25;15.50;;;7.75;;
47669;SDS011;33408;52.062;11.722;2022-09-20T03:04:01;14.25;;;7.32;;
47669;SDS011;33408;52.062;11.722;2022-09-20T03:06:40;18.90;;;6.80;;
47669;SDS011;33408;52.062;11.722;2022-09-20T03:09:17;21.80;;;8.25;;
47669;SDS011;33408;52.062;11.722;2022-09-20T03:11:56;18.38;;;7.43;;
47669;SDS011;33408;52.062;11.722;2022-09-20T03:14:30;15.48;;;7.80;;
47669;SDS011;33408;52.062;11.722;2022-09-20T03:17:04;16.00;;;7.68;;
47669;SDS011;33408;52.062;11.722;2022-09-20T03:19:42;21.73;;;8.50;;
47669;SDS011;33408;52.062;11.722;2022-09-20T03:22:19;21.33;;;7.90;;
47669;SDS011;33408;52.062;11.722;2022-09-20T03:25:02;15.48;;;9.07;;
47669;SDS011;33408;52.062;11.722;2022-09-20T03:27:47;19.65;;;8.80;;
47669;SDS011;33408;52.062;11.722;2022-09-20T03:30:26;18.17;;;8.20;;
47669;SDS011;33408;52.062;11.722;2022-09-20T03:33:03;19.67;;;9.27;;
47669;SDS011;33408;52.062;11.722;2022-09-20T03:35:41;19.75;;;8.73;;
47669;SDS011;33408;52.062;11.722;2022-09-20T03:38:36;20.52;;;10.10;;
47669;SDS011;33408;52.062;11.722;2022-09-20T03:41:17;17.17;;;8.93;;
47669;SDS011;33408;52.062;11.722;2022-09-20T03:44:07;23.13;;;9.05;;
47669;SDS011;33408;52.062;11.722;2022-09-20T03:46:46;21.67;;;10.05;;
47669;SDS011;33408;52.062;11.722;2022-09-20T03:52:10;20.05;;;8.95;;
47669;SDS011;33408;52.062;11.722;2022-09-20T03:55:01;19.63;;;9.68;;
47669;SDS011;33408;52.062;11.722;2022-09-20T03:57:57;19.85;;;10.32;;
47669;SDS011;33408;52.062;11.722;2022-09-20T04:00:38;18.05;;;10.27;;
47669;SDS011;33408;52.062;11.722;2022-09-20T04:03:22;18.45;;;10.23;;
47669;SDS011;33408;52.062;11.722;2022-09-20T04:06:01;20.05;;;11.38;;
47669;SDS011;33408;52.062;11.722;2022-09-20T04:08:47;20.25;;;9.98;;
47669;SDS011;33408;52.062;11.722;2022-09-20T04:11:36;18.88;;;9.20;;
47669;SDS011;33408;52.062;11.722;2022-09-20T04:14:13;19.50;;;10.10;;
47669;SDS011;33408;52.062;11.722;2022-09-20T04:16:48;20.00;;;10.45;;
47669;SDS011;33408;52.062;11.722;2022-09-20T04:19:21;21.30;;;11.85;;
47669;SDS011;33408;52.062;11.722;2022-09-20T04:21:52;24.05;;;12.10;;
47669;SDS011;33408;52.062;11.722;2022-09-20T04:24:22;24.92;;;12.35;;
47669;SDS011;33408;52.062;11.722;2022-09-20T04:26:58;30.50;;;14.07;;
47669;SDS011;33408;52.062;11.722;2022-09-20T04:29:32;23.48;;;11.85;;
47669;SDS011;33408;52.062;11.722;2022-09-20T04:32:06;25.35;;;13.50;;
47669;SDS011;33408;52.062;11.722;2022-09-20T04:34:42;23.88;;;13.40;;
47669;SDS011;33408;52.062;11.722;2022-09-20T04:37:30;24.13;;;13.18;;
47669;SDS011;33408;52.062;11.722;2022-09-20T04:40:03;28.80;;;13.95;;
47669;SDS011;33408;52.062;11.722;2022-09-20T04:42:50;23.20;;;13.13;;
47669;SDS011;33408;52.062;11.722;2022-09-20T04:46:02;31.27;;;15.15;;
47669;SDS011;33408;52.062;11.722;2022-09-20T04:52:18;22.00;;;13.60;;
47669;SDS011;33408;52.062;11.722;2022-09-20T04:58:08;27.25;;;15.00;;
47669;SDS011;33408;52.062;11.722;2022-09-20T05:01:05;20.60;;;12.88;;
47669;SDS011;33408;52.062;11.722;2022-09-20T05:03:58;24.25;;;13.30;;
47669;SDS011;33408;52.062;11.722;2022-09-20T05:06:55;23.10;;;13.73;;
47669;SDS011;33408;52.062;11.722;2022-09-20T05:12:50;28.35;;;14.35;;
47669;SDS011;33408;52.062;11.722;2022-09-20T05:15:37;23.40;;;13.73;;
47669;SDS011;33408;52.062;11.722;2022-09-20T05:18:24;25.23;;;13.70;;
47669;SDS011;33408;52.062;11.722;2022-09-20T05:21:12;24.67;;;13.27;;
47669;SDS011;33408;52.062;11.722;2022-09-20T05:23:52;22.50;;;13.10;;
47669;SDS011;33408;52.062;11.722;2022-09-20T05:26:35;22.83;;;12.48;;
47669;SDS011;33408;52.062;11.722;2022-09-20T05:29:11;26.77;;;13.60;;
47669;SDS011;33408;52.062;11.722;2022-09-20T05:31:43;29.30;;;12.37;;
47669;SDS011;33408;52.062;11.722;2022-09-20T05:34:21;25.80;;;12.80;;
47669;SDS011;33408;52.062;11.722;2022-09-20T05:36:57;22.50;;;13.18;;
47669;SDS011;33408;52.062;11.722;2022-09-20T05:39:33;21.42;;;11.95;;
47669;SDS011;33408;52.062;11.722;2022-09-20T05:42:07;28.23;;;13.60;;
47669;SDS011;33408;52.062;11.722;2022-09-20T05:44:48;19.35;;;10.90;;
47669;SDS011;33408;52.062;11.722;2022-09-20T05:47:22;22.20;;;12.25;;
47669;SDS011;33408;52.062;11.722;2022-09-20T05:49:59;25.35;;;11.60;;
47669;SDS011;33408;52.062;11.722;2022-09-20T05:52:41;23.50;;;13.27;;
47669;SDS011;33408;52.062;11.722;2022-09-20T05:55:22;22.70;;;11.57;;
47669;SDS011;33408;52.062;11.722;2022-09-20T05:58:15;21.73;;;11.80;;
47669;SDS011;33408;52.062;11.722;2022-09-20T06:00:55;21.63;;;13.40;;
47669;SDS011;33408;52.062;11.722;2022-09-20T06:03:28;21.00;;;12.10;;
47669;SDS011;33408;52.062;11.722;2022-09-20T06:06:05;19.65;;;12.20;;
47669;SDS011;33408;52.062;11.722;2022-09-20T06:08:44;25.83;;;13.18;;
47669;SDS011;33408;52.062;11.722;2022-09-20T06:11:28;27.27;;;13.35;;
47669;SDS011;33408;52.062;11.722;2022-09-20T06:14:12;24.67;;;12.77;;
47669;SDS011;33408;52.062;11.722;2022-09-20T06:16:48;18.77;;;11.63;;
47669;SDS011;33408;52.062;11.722;2022-09-20T06:19:25;19.95;;;11.75;;
47669;SDS011;33408;52.062;11.722;2022-09-20T06:22:00;20.25;;;11.70;;
47669;SDS011;33408;52.062;11.722;2022-09-20T06:24:32;20.60;;;11.00;;
47669;SDS011;33408;52.062;11.722;2022-09-20T06:27:05;21.88;;;10.45;;
47669;SDS011;33408;52.062;11.722;2022-09-20T06:29:37;18.50;;;9.93;;
47669;SDS011;33408;52.062;11.722;2022-09-20T06:32:07;18.33;;;11.05;;
47669;SDS011;33408;52.062;11.722;2022-09-20T06:34:34;26.30;;;12.55;;
47669;SDS011;33408;52.062;11.722;2022-09-20T06:37:07;20.55;;;11.13;;
47669;SDS011;33408;52.062;11.722;2022-09-20T06:40:02;22.05;;;9.75;;
47669;SDS011;33408;52.062;11.722;2022-09-20T06:42:56;21.42;;;10.73;;
47669;SDS011;33408;52.062;11.722;2022-09-20T06:45:24;19.30;;;10.43;;
47669;SDS011;33408;52.062;11.722;2022-09-20T06:47:51;16.98;;;9.88;;
47669;SDS011;33408;52.062;11.722;2022-09-20T06:50:17;18.73;;;9.30;;
47669;SDS011;33408;52.062;11.722;2022-09-20T06:52:45;14.35;;;9.07;;
47669;SDS011;33408;52.062;11.722;2022-09-20T06:55:15;16.65;;;9.93;;
47669;SDS011;33408;52.062;11.722;2022-09-20T06:57:45;18.88;;;9.02;;
47669;SDS011;33408;52.062;11.722;2022-09-20T07:00:12;17.13;;;8.60;;
47669;SDS011;33408;52.062;11.722;2022-09-20T07:02:39;13.88;;;7.88;;
47669;SDS011;33408;52.062;11.722;2022-09-20T07:05:08;15.60;;;8.13;;
47669;SDS011;33408;52.062;11.722;2022-09-20T07:07:38;17.33;;;7.82;;
47669;SDS011;33408;52.062;11.722;2022-09-20T07:10:07;16.10;;;7.97;;
47669;SDS011;33408;52.062;11.722;2022-09-20T07:12:34;16.75;;;8.95;;
47669;SDS011;33408;52.062;11.722;2022-09-20T07:15:00;15.65;;;8.15;;
47669;SDS011;33408;52.062;11.722;2022-09-20T07:17:27;15.30;;;7.85;;
47669;SDS011;33408;52.062;11.722;2022-09-20T07:19:53;18.75;;;7.35;;
47669;SDS011;33408;52.062;11.722;2022-09-20T07:22:20;14.27;;;8.00;;
47669;SDS011;33408;52.062;11.722;2022-09-20T07:24:47;16.52;;;7.60;;
47669;SDS011;33408;52.062;11.722;2022-09-20T07:27:15;13.27;;;7.53;;
47669;SDS011;33408;52.062;11.722;2022-09-20T07:29:41;12.38;;;7.07;;
47669;SDS011;33408;52.062;11.722;2022-09-20T07:32:08;13.43;;;6.70;;
47669;SDS011;33408;52.062;11.722;2022-09-20T07:34:34;11.68;;;7.40;;
47669;SDS011;33408;52.062;11.722;2022-09-20T07:37:01;14.65;;;7.68;;
47669;SDS011;33408;52.062;11.722;2022-09-20T07:39:27;16.65;;;8.02;;
47669;SDS011;33408;52.062;11.722;2022-09-20T07:41:54;20.45;;;8.10;;
47669;SDS011;33408;52.062;11.722;2022-09-20T07:44:22;15.23;;;8.05;;
47669;SDS011;33408;52.062;11.722;2022-09-20T07:46:52;14.30;;;7.20;;
47669;SDS011;33408;52.062;11.722;2022-09-20T07:49:21;13.60;;;7.72;;
47669;SDS011;33408;52.062;11.722;2022-09-20T07:51:48;14.02;;;7.00;;
47669;SDS011;33408;52.062;11.722;2022-09-20T07:54:14;19.00;;;8.25;;
47669;SDS011;33408;52.062;11.722;2022-09-20T07:56:41;13.77;;;8.23;;
47669;SDS011;33408;52.062;11.722;2022-09-20T07:59:08;14.32;;;7.25;;
47669;SDS011;33408;52.062;11.722;2022-09-20T08:01:36;14.38;;;7.93;;
47669;SDS011;33408;52.062;11.722;2022-09-20T08:04:03;18.65;;;8.50;;
47669;SDS011;33408;52.062;11.722;2022-09-20T08:06:30;17.30;;;7.85;;
47669;SDS011;33408;52.062;11.722;2022-09-20T08:08:56;13.48;;;8.48;;
47669;SDS011;33408;52.062;11.722;2022-09-20T08:11:23;17.67;;;9.20;;
47669;SDS011;33408;52.062;11.722;2022-09-20T08:13:52;14.07;;;7.57;;
47669;SDS011;33408;52.062;11.722;2022-09-20T08:16:21;12.38;;;6.40;;
47669;SDS011;33408;52.062;11.722;2022-09-20T08:18:50;15.60;;;7.68;;
47669;SDS011;33408;52.062;11.722;2022-09-20T08:21:19;16.05;;;7.18;;
47669;SDS011;33408;52.062;11.722;2022-09-20T08:23:45;13.60;;;7.70;;
47669;SDS011;33408;52.062;11.722;2022-09-20T08:26:13;14.18;;;6.63;;
47669;SDS011;33408;52.062;11.722;2022-09-20T08:28:43;13.05;;;7.57;;
47669;SDS011;33408;52.062;11.722;2022-09-20T08:31:11;14.52;;;8.00;;
47669;SDS011;33408;52.062;11.722;2022-09-20T08:33:39;12.55;;;6.95;;
47669;SDS011;33408;52.062;11.722;2022-09-20T08:36:12;12.13;;;6.55;;
47669;SDS011;33408;52.062;11.722;2022-09-20T08:38:41;10.55;;;6.78;;
47669;SDS011;33408;52.062;11.722;2022-09-20T08:41:09;13.05;;;6.35;;
47669;SDS011;33408;52.062;11.722;2022-09-20T08:43:39;11.30;;;6.65;;
47669;SDS011;33408;52.062;11.722;2022-09-20T08:46:12;14.30;;;6.05;;
47669;SDS011;33408;52.062;11.722;2022-09-20T08:48:43;12.80;;;6.80;;
47669;SDS011;33408;52.062;11.722;2022-09-20T08:51:13;13.70;;;6.47;;
47669;SDS011;33408;52.062;11.722;2022-09-20T08:53:44;10.03;;;5.70;;
47669;SDS011;33408;52.062;11.722;2022-09-20T08:56:12;13.98;;;6.60;;
47669;SDS011;33408;52.062;11.722;2022-09-20T08:58:39;10.27;;;6.28;;
47669;SDS011;33408;52.062;11.722;2022-09-20T09:01:06;11.98;;;5.22;;
47669;SDS011;33408;52.062;11.722;2022-09-20T09:03:35;12.02;;;5.68;;
47669;SDS011;33408;52.062;11.722;2022-09-20T09:06:02;11.73;;;6.25;;
47669;SDS011;33408;52.062;11.722;2022-09-20T09:08:32;11.38;;;5.65;;
47669;SDS011;33408;52.062;11.722;2022-09-20T09:11:02;10.93;;;4.60;;
47669;SDS011;33408;52.062;11.722;2022-09-20T09:13:36;12.73;;;5.55;;
47669;SDS011;33408;52.062;11.722;2022-09-20T09:16:09;12.77;;;5.97;;
47669;SDS011;33408;52.062;11.722;2022-09-20T09:18:40;9.85;;;5.72;;
47669;SDS011;33408;52.062;11.722;2022-09-20T09:21:08;10.77;;;5.43;;
47669;SDS011;33408;52.062;11.722;2022-09-20T09:23:45;9.20;;;5.32;;
47669;SDS011;33408;52.062;11.722;2022-09-20T09:26:17;11.32;;;5.00;;
47669;SDS011;33408;52.062;11.722;2022-09-20T09:28:46;12.65;;;5.82;;
47669;SDS011;33408;52.062;11.722;2022-09-20T09:31:32;9.88;;;6.03;;
47669;SDS011;33408;52.062;11.722;2022-09-20T09:34:03;12.38;;;6.40;;
47669;SDS011;33408;52.062;11.722;2022-09-20T09:36:30;10.63;;;5.35;;
47669;SDS011;33408;52.062;11.722;2022-09-20T09:39:14;10.27;;;5.95;;
47669;SDS011;33408;52.062;11.722;2022-09-20T09:41:47;10.30;;;5.78;;
47669;SDS011;33408;52.062;11.722;2022-09-20T09:44:19;10.00;;;5.43;;
47669;SDS011;33408;52.062;11.722;2022-09-20T09:49:16;15.43;;;6.55;;
47669;SDS011;33408;52.062;11.722;2022-09-20T09:51:58;11.35;;;6.63;;
47669;SDS011;33408;52.062;11.722;2022-09-20T09:54:29;10.02;;;6.45;;
47669;SDS011;33408;52.062;11.722;2022-09-20T09:56:59;12.00;;;6.72;;
47669;SDS011;33408;52.062;11.722;2022-09-20T09:59:38;11.35;;;6.10;;
47669;SDS011;33408;52.062;11.722;2022-09-20T10:02:23;10.48;;;6.38;;
47669;SDS011;33408;52.062;11.722;2022-09-20T10:05:03;12.05;;;6.32;;
47669;SDS011;33408;52.062;11.722;2022-09-20T10:07:40;9.63;;;5.82;;
47669;SDS011;33408;52.062;11.722;2022-09-20T10:10:16;10.00;;;5.95;;
47669;SDS011;33408;52.062;11.722;2022-09-20T10:12:51;8.75;;;5.50;;
47669;SDS011;33408;52.062;11.722;2022-09-20T10:15:28;9.88;;;6.20;;
47669;SDS011;33408;52.062;11.722;2022-09-20T10:18:06;10.93;;;6.00;;
47669;SDS011;33408;52.062;11.722;2022-09-20T10:20:53;10.05;;;5.50;;
47669;SDS011;33408;52.062;11.722;2022-09-20T10:26:32;9.43;;;6.13;;
47669;SDS011;33408;52.062;11.722;2022-09-20T10:29:14;12.63;;;6.63;;
47669;SDS011;33408;52.062;11.722;2022-09-20T10:31:49;12.05;;;6.97;;
47669;SDS011;33408;52.062;11.722;2022-09-20T10:34:40;17.88;;;7.13;;
47669;SDS011;33408;52.062;11.722;2022-09-20T10:37:23;9.73;;;6.35;;
47669;SDS011;33408;52.062;11.722;2022-09-20T10:39:55;11.00;;;6.68;;
47669;SDS011;33408;52.062;11.722;2022-09-20T10:42:31;10.45;;;6.40;;
47669;SDS011;33408;52.062;11.722;2022-09-20T10:45:26;10.07;;;5.45;;
47669;SDS011;33408;52.062;11.722;2022-09-20T10:48:01;9.70;;;6.20;;
47669;SDS011;33408;52.062;11.722;2022-09-20T10:53:03;14.20;;;6.20;;
47669;SDS011;33408;52.062;11.722;2022-09-20T10:55:55;8.90;;;6.07;;
47669;SDS011;33408;52.062;11.722;2022-09-20T11:01:29;10.65;;;5.57;;
47669;SDS011;33408;52.062;11.722;2022-09-20T11:04:12;9.38;;;5.85;;
47669;SDS011;33408;52.062;11.722;2022-09-20T11:06:54;10.00;;;6.30;;
47669;SDS011;33408;52.062;11.722;2022-09-20T11:09:30;12.82;;;6.25;;
47669;SDS011;33408;52.062;11.722;2022-09-20T11:12:02;9.70;;;5.15;;
47669;SDS011;33408;52.062;11.722;2022-09-20T11:14:38;9.70;;;4.32;;
47669;SDS011;33408;52.062;11.722;2022-09-20T11:17:10;7.82;;;4.32;;
47669;SDS011;33408;52.062;11.722;2022-09-20T11:19:44;8.60;;;4.55;;
47669;SDS011;33408;52.062;11.722;2022-09-20T11:22:18;10.63;;;5.40;;
47669;SDS011;33408;52.062;11.722;2022-09-20T11:24:48;8.20;;;4.68;;
47669;SDS011;33408;52.062;11.722;2022-09-20T11:27:20;8.63;;;4.80;;
47669;SDS011;33408;52.062;11.722;2022-09-20T11:29:52;8.93;;;5.22;;
47669;SDS011;33408;52.062;11.722;2022-09-20T11:32:26;8.60;;;5.15;;
47669;SDS011;33408;52.062;11.722;2022-09-20T11:35:05;10.13;;;4.85;;
47669;SDS011;33408;52.062;11.722;2022-09-20T11:37:47;6.57;;;4.18;;
47669;SDS011;33408;52.062;11.722;2022-09-20T11:40:20;8.45;;;4.25;;
47669;SDS011;33408;52.062;11.722;2022-09-20T11:42:50;9.55;;;4.72;;
47669;SDS011;33408;52.062;11.722;2022-09-20T11:45:18;8.52;;;4.50;;
47669;SDS011;33408;52.062;11.722;2022-09-20T11:47:47;7.60;;;3.72;;
47669;SDS011;33408;52.062;11.722;2022-09-20T11:50:31;8.93;;;3.92;;
47669;SDS011;33408;52.062;11.722;2022-09-20T11:53:12;7.07;;;3.60;;
47669;SDS011;33408;52.062;11.722;2022-09-20T11:55:49;6.88;;;3.40;;
47669;SDS011;33408;52.062;11.722;2022-09-20T11:58:21;8.25;;;3.45;;
47669;SDS011;33408;52.062;11.722;2022-09-20T12:00:49;7.15;;;3.95;;
47669;SDS011;33408;52.062;11.722;2022-09-20T12:03:29;9.13;;;3.45;;
47669;SDS011;33408;52.062;11.722;2022-09-20T12:06:01;8.60;;;3.35;;
47669;SDS011;33408;52.062;11.722;2022-09-20T12:08:30;5.75;;;3.08;;
47669;SDS011;33408;52.062;11.722;2022-09-20T12:11:00;4.60;;;2.38;;
47669;SDS011;33408;52.062;11.722;2022-09-20T12:13:30;5.32;;;2.63;;
47669;SDS011;33408;52.062;11.722;2022-09-20T12:16:04;6.38;;;2.40;;
47669;SDS011;33408;52.062;11.722;2022-09-20T12:18:36;6.35;;;2.92;;
47669;SDS011;33408;52.062;11.722;2022-09-20T12:21:12;7.82;;;2.88;;
47669;SDS011;33408;52.062;11.722;2022-09-20T12:26:47;6.53;;;3.50;;
47669;SDS011;33408;52.062;11.722;2022-09-20T12:32:29;5.18;;;2.05;;
47669;SDS011;33408;52.062;11.722;2022-09-20T12:38:25;3.80;;;2.13;;
47669;SDS011;33408;52.062;11.722;2022-09-20T12:41:13;6.63;;;2.80;;
47669;SDS011;33408;52.062;11.722;2022-09-20T12:43:50;5.55;;;2.17;;
47669;SDS011;33408;52.062;11.722;2022-09-20T12:46:24;3.88;;;1.98;;
47669;SDS011;33408;52.062;11.722;2022-09-20T12:55:28;4.95;;;2.05;;
47669;SDS011;33408;52.062;11.722;2022-09-20T12:57:59;4.53;;;2.00;;
47669;SDS011;33408;52.062;11.722;2022-09-20T13:00:29;5.55;;;2.63;;
47669;SDS011;33408;52.062;11.722;2022-09-20T13:03:09;6.15;;;2.83;;
47669;SDS011;33408;52.062;11.722;2022-09-20T13:05:38;5.90;;;2.53;;
47669;SDS011;33408;52.062;11.722;2022-09-20T13:08:13;5.90;;;2.17;;
47669;SDS011;33408;52.062;11.722;2022-09-20T13:10:44;4.47;;;1.98;;
47669;SDS011;33408;52.062;11.722;2022-09-20T13:16:11;3.08;;;1.50;;
47669;SDS011;33408;52.062;11.722;2022-09-20T13:18:46;5.40;;;1.95;;
47669;SDS011;33408;52.062;11.722;2022-09-20T13:21:18;3.17;;;1.63;;
47669;SDS011;33408;52.062;11.722;2022-09-20T13:23:47;3.15;;;1.40;;
47669;SDS011;33408;52.062;11.722;2022-09-20T13:26:16;4.18;;;1.88;;
47669;SDS011;33408;52.062;11.722;2022-09-20T13:28:49;3.75;;;1.70;;
47669;SDS011;33408;52.062;11.722;2022-09-20T13:31:21;3.53;;;1.83;;
47669;SDS011;33408;52.062;11.722;2022-09-20T13:34:12;4.03;;;1.50;;
47669;SDS011;33408;52.062;11.722;2022-09-20T13:36:46;3.33;;;1.92;;
47669;SDS011;33408;52.062;11.722;2022-09-20T13:39:29;3.85;;;1.60;;
47669;SDS011;33408;52.062;11.722;2022-09-20T13:42:00;4.93;;;1.70;;
47669;SDS011;33408;52.062;11.722;2022-09-20T13:44:31;4.32;;;1.83;;
47669;SDS011;33408;52.062;11.722;2022-09-20T13:46:58;4.18;;;1.58;;
47669;SDS011;33408;52.062;11.722;2022-09-20T13:49:29;4.10;;;1.42;;
47669;SDS011;33408;52.062;11.722;2022-09-20T13:51:56;3.58;;;1.60;;
47669;SDS011;33408;52.062;11.722;2022-09-20T13:54:25;3.33;;;1.42;;
47669;SDS011;33408;52.062;11.722;2022-09-20T13:56:53;3.85;;;1.73;;
47669;SDS011;33408;52.062;11.722;2022-09-20T13:59:23;2.83;;;1.42;;
47669;SDS011;33408;52.062;11.722;2022-09-20T14:01:55;1.80;;;1.20;;
47669;SDS011;33408;52.062;11.722;2022-09-20T14:04:24;3.13;;;1.40;;
47669;SDS011;33408;52.062;11.722;2022-09-20T14:06:53;4.95;;;1.60;;
47669;SDS011;33408;52.062;11.722;2022-09-20T14:09:24;3.30;;;1.38;;
47669;SDS011;33408;52.062;11.722;2022-09-20T14:14:24;3.53;;;1.30;;
47669;SDS011;33408;52.062;11.722;2022-09-20T14:16:52;3.22;;;1.42;;
47669;SDS011;33408;52.062;11.722;2022-09-20T14:19:22;2.20;;;1.35;;
47669;SDS011;33408;52.062;11.722;2022-09-20T14:21:55;2.92;;;1.40;;
47669;SDS011;33408;52.062;11.722;2022-09-20T14:24:23;2.67;;;1.30;;
47669;SDS011;33408;52.062;11.722;2022-09-20T14:27:01;3.88;;;1.60;;
47669;SDS011;33408;52.062;11.722;2022-09-20T14:29:39;3.63;;;1.52;;
47669;SDS011;33408;52.062;11.722;2022-09-20T14:32:09;4.40;;;1.63;;
47669;SDS011;33408;52.062;11.722;2022-09-20T14:34:49;4.07;;;1.27;;
47669;SDS011;33408;52.062;11.722;2022-09-20T14:37:24;3.30;;;1.10;;
47669;SDS011;33408;52.062;11.722;2022-09-20T14:39:52;2.35;;;1.00;;
47669;SDS011;33408;52.062;11.722;2022-09-20T14:42:28;2.28;;;1.17;;
47669;SDS011;33408;52.062;11.722;2022-09-20T14:44:58;1.55;;;0.90;;
47669;SDS011;33408;52.062;11.722;2022-09-20T14:47:26;2.50;;;0.93;;
47669;SDS011;33408;52.062;11.722;2022-09-20T14:49:53;2.85;;;1.17;;
47669;SDS011;33408;52.062;11.722;2022-09-20T14:52:33;2.78;;;1.10;;
47669;SDS011;33408;52.062;11.722;2022-09-20T14:55:13;3.63;;;1.13;;
47669;SDS011;33408;52.062;11.722;2022-09-20T14:57:46;3.43;;;1.27;;
47669;SDS011;33408;52.062;11.722;2022-09-20T15:00:13;2.85;;;1.20;;
47669;SDS011;33408;52.062;11.722;2022-09-20T15:02:43;1.55;;;0.90;;
47669;SDS011;33408;52.062;11.722;2022-09-20T15:05:18;3.70;;;1.13;;
47669;SDS011;33408;52.062;11.722;2022-09-20T15:07:47;1.48;;;0.93;;
47669;SDS011;33408;52.062;11.722;2022-09-20T15:10:14;5.25;;;1.25;;
47669;SDS011;33408;52.062;11.722;2022-09-20T15:12:41;1.95;;;1.00;;
47669;SDS011;33408;52.062;11.722;2022-09-20T15:15:11;1.85;;;0.77;;
47669;SDS011;33408;52.062;11.722;2022-09-20T15:17:40;3.65;;;1.00;;
47669;SDS011;33408;52.062;11.722;2022-09-20T15:20:11;1.45;;;0.82;;
47669;SDS011;33408;52.062;11.722;2022-09-20T15:22:39;2.97;;;1.30;;
47669;SDS011;33408;52.062;11.722;2022-09-20T15:25:07;2.83;;;1.00;;
47669;SDS011;33408;52.062;11.722;2022-09-20T15:27:38;4.13;;;1.05;;
47669;SDS011;33408;52.062;11.722;2022-09-20T15:30:05;0.95;;;0.70;;
47669;SDS011;33408;52.062;11.722;2022-09-20T15:32:35;4.63;;;1.00;;
47669;SDS011;33408;52.062;11.722;2022-09-20T15:35:01;1.70;;;0.85;;
47669;SDS011;33408;52.062;11.722;2022-09-20T15:37:28;2.85;;;0.77;;
47669;SDS011;33408;52.062;11.722;2022-09-20T15:39:55;1.33;;;0.70;;
47669;SDS011;33408;52.062;11.722;2022-09-20T15:42:21;1.70;;;1.08;;
47669;SDS011;33408;52.062;11.722;2022-09-20T15:44:48;1.08;;;0.82;;
47669;SDS011;33408;52.062;11.722;2022-09-20T15:47:16;4.25;;;1.40;;
47669;SDS011;33408;52.062;11.722;2022-09-20T15:49:44;5.30;;;1.13;;
47669;SDS011;33408;52.062;11.722;2022-09-20T15:52:10;13.40;;;2.17;;
47669;SDS011;33408;52.062;11.722;2022-09-20T15:54:37;6.93;;;1.40;;
47669;SDS011;33408;52.062;11.722;2022-09-20T15:57:03;2.60;;;1.02;;
47669;SDS011;33408;52.062;11.722;2022-09-20T15:59:30;5.32;;;0.98;;
47669;SDS011;33408;52.062;11.722;2022-09-20T16:01:58;3.33;;;1.10;;